Chicota, Texas
Current Conditions -  °F | °C
As of 3:15 AM on Monday 20 Oct 2014 (Local Time) from KHHW Reporting Station
Clear Clear  
Wind Chill: 54°   Ceiling: Unl
Heat Index: 54°   Visibility: 10mi
Dew Point: 49°   Wind: 3mph
Humidity: 85%   Direction: 50°NE
Pressure: 30.06"   Gusts: NA
Location:  33.87°N, 95.57°W
Report Text: KHHW 200815Z AUTO 05003KT 10SM CLR 12/10 A3006 RMK AO2 T01200096
Loading
Personal Weather Stations






























Interactive Weather Map
Tropical Storm Tracking
New forecast layout! Learn more

10-Day Weather Forecast

Advertisements
Track Severe Weather on mobile